createdAt,value
2017-11-29T00:02:14.185Z,4.20
2017-11-29T00:04:41.719Z,4.10
2017-11-29T00:07:10.494Z,4.10
2017-11-29T00:09:37.978Z,4.10
2017-11-29T00:12:05.492Z,4.10
2017-11-29T00:14:32.921Z,4.10
2017-11-29T00:17:00.360Z,4.10
2017-11-29T00:19:27.830Z,4.00
2017-11-29T00:21:55.483Z,4.10
2017-11-29T00:24:24.171Z,4.10
2017-11-29T00:26:51.958Z,4.00
2017-11-29T00:29:19.498Z,4.00
2017-11-29T00:31:46.959Z,3.90
2017-11-29T00:34:14.397Z,3.90
2017-11-29T00:36:43.397Z,4.00
2017-11-29T00:39:13.305Z,4.00
2017-11-29T00:41:40.781Z,4.00
2017-11-29T00:44:09.758Z,4.00
2017-11-29T00:46:37.708Z,4.00
2017-11-29T00:49:05.160Z,4.10
2017-11-29T00:51:32.617Z,4.20
2017-11-29T00:54:01.186Z,4.20
2017-11-29T00:56:28.650Z,4.20
2017-11-29T00:58:56.592Z,4.20
2017-11-29T01:01:24.699Z,4.20
2017-11-29T01:03:52.239Z,4.20
2017-11-29T01:06:19.679Z,4.10
2017-11-29T01:08:47.406Z,4.10
2017-11-29T01:11:14.933Z,4.10
2017-11-29T01:13:42.397Z,4.10
2017-11-29T01:16:11.309Z,4.20
2017-11-29T01:18:41.213Z,4.30
2017-11-29T01:21:08.659Z,4.30
2017-11-29T01:23:40.146Z,4.30
2017-11-29T01:26:08.121Z,4.20
2017-11-29T01:28:35.574Z,4.20
2017-11-29T01:31:03.398Z,4.30
2017-11-29T01:33:30.849Z,4.40
2017-11-29T01:36:02.533Z,4.40
2017-11-29T01:38:30.985Z,4.40
2017-11-29T01:40:58.449Z,4.40
2017-11-29T01:43:25.928Z,4.40
2017-11-29T01:45:53.403Z,4.40
2017-11-29T01:48:20.877Z,4.40
2017-11-29T01:50:49.133Z,4.30
2017-11-29T01:53:16.666Z,4.30
2017-11-29T01:55:45.127Z,4.20
2017-11-29T01:58:12.730Z,4.20
2017-11-29T02:00:48.035Z,4.20
2017-11-29T02:03:15.735Z,4.20
2017-11-29T02:05:47.490Z,4.10
2017-11-29T02:08:15.475Z,4.00
2017-11-29T02:10:42.972Z,4.00
2017-11-29T02:13:10.463Z,4.00
2017-11-29T02:15:38.447Z,3.90
2017-11-29T02:18:06.519Z,3.80
2017-11-29T02:20:39.299Z,3.70
2017-11-29T02:23:06.758Z,3.70
2017-11-29T02:25:34.198Z,3.70
2017-11-29T02:28:01.689Z,3.80
2017-11-29T02:30:29.660Z,3.80
2017-11-29T02:32:57.896Z,3.90
2017-11-29T02:35:25.373Z,3.80
2017-11-29T02:37:52.852Z,4.00
2017-11-29T02:40:33.090Z,4.00
2017-11-29T02:43:00.789Z,4.00
2017-11-29T02:45:28.230Z,4.00
2017-11-29T02:47:56.170Z,4.00
2017-11-29T02:50:23.708Z,3.90
2017-11-29T02:52:51.183Z,3.80
2017-11-29T02:55:18.637Z,3.70
2017-11-29T02:57:46.417Z,3.70
2017-11-29T03:00:14.930Z,3.80
2017-11-29T03:02:42.381Z,3.80
2017-11-29T03:05:09.813Z,3.90
2017-11-29T03:07:40.958Z,3.90
2017-11-29T03:10:08.689Z,3.90
2017-11-29T03:12:36.153Z,3.90
2017-11-29T03:15:04.262Z,3.90
2017-11-29T03:17:31.727Z,3.80
2017-11-29T03:19:59.183Z,3.70
2017-11-29T03:22:36.663Z,3.60
2017-11-29T03:25:05.030Z,3.60
2017-11-29T03:27:32.882Z,3.60
2017-11-29T03:30:00.350Z,3.60
2017-11-29T03:32:27.841Z,3.70
2017-11-29T03:34:55.762Z,3.80
2017-11-29T03:37:24.183Z,3.90
2017-11-29T03:39:52.522Z,3.80
2017-11-29T03:42:20.747Z,3.70
2017-11-29T03:44:48.214Z,3.70
2017-11-29T03:47:15.687Z,3.60
2017-11-29T03:49:43.951Z,3.60
2017-11-29T03:52:11.401Z,3.50
2017-11-29T03:54:38.842Z,3.50
2017-11-29T03:57:06.315Z,3.40
2017-11-29T03:59:33.762Z,3.30
2017-11-29T04:02:01.276Z,3.20
2017-11-29T04:04:28.719Z,3.20
2017-11-29T04:06:56.954Z,3.20
2017-11-29T04:09:24.422Z,3.20
2017-11-29T04:11:51.881Z,3.20
2017-11-29T04:14:19.359Z,3.10
2017-11-29T04:16:46.794Z,3.00
2017-11-29T04:19:14.259Z,3.00
2017-11-29T04:21:41.778Z,2.90
2017-11-29T04:24:09.820Z,3.00
2017-11-29T04:26:37.301Z,3.00
2017-11-29T04:29:04.866Z,3.10
2017-11-29T04:31:32.352Z,3.10
2017-11-29T04:33:59.814Z,3.10
2017-11-29T04:36:27.282Z,3.20
2017-11-29T04:38:57.791Z,3.20
2017-11-29T04:41:25.300Z,3.20
2017-11-29T04:43:52.774Z,3.20
2017-11-29T04:46:20.206Z,3.20
2017-11-29T04:48:47.677Z,3.20
2017-11-29T04:51:15.123Z,3.20
2017-11-29T04:53:47.079Z,3.10
2017-11-29T04:56:14.542Z,3.10
2017-11-29T04:58:41.986Z,3.10
2017-11-29T05:01:09.454Z,3.10
2017-11-29T05:03:37.425Z,3.10
2017-11-29T05:06:04.903Z,3.00
2017-11-29T05:08:32.580Z,2.90
2017-11-29T05:11:00.819Z,2.50
2017-11-29T05:13:28.358Z,2.40
2017-11-29T05:15:55.825Z,2.40
2017-11-29T05:18:23.294Z,2.30
2017-11-29T05:20:50.730Z,2.20
2017-11-29T05:23:18.199Z,2.20
2017-11-29T05:25:45.645Z,2.20
2017-11-29T05:28:13.320Z,2.20
2017-11-29T05:30:41.045Z,2.20
2017-11-29T05:33:08.518Z,2.30
2017-11-29T05:35:36.224Z,2.40
2017-11-29T05:38:04.036Z,2.40
2017-11-29T05:40:31.508Z,2.50
2017-11-29T05:42:59.920Z,2.60
2017-11-29T05:45:27.385Z,2.60
2017-11-29T05:47:54.814Z,2.60
2017-11-29T05:50:22.834Z,2.50
2017-11-29T05:52:50.347Z,2.50
2017-11-29T05:55:17.826Z,2.50
2017-11-29T05:57:45.587Z,2.50
2017-11-29T06:00:14.562Z,2.50
2017-11-29T06:02:42.042Z,2.50
2017-11-29T06:05:09.550Z,2.60
2017-11-29T06:07:37.014Z,2.70
2017-11-29T06:10:04.650Z,2.70
2017-11-29T06:12:32.838Z,2.80
2017-11-29T06:15:00.303Z,2.80
2017-11-29T06:17:27.748Z,2.80
2017-11-29T06:19:55.239Z,2.90
2017-11-29T06:22:22.682Z,3.00
2017-11-29T06:24:53.762Z,3.10
2017-11-29T06:27:21.210Z,3.10
2017-11-29T06:29:48.686Z,3.10
2017-11-29T06:32:17.722Z,3.10
2017-11-29T06:34:45.229Z,3.00
2017-11-29T06:37:12.700Z,3.10
2017-11-29T06:39:41.843Z,3.30
2017-11-29T06:42:13.644Z,3.30
2017-11-29T06:44:41.566Z,3.30
2017-11-29T06:47:09.053Z,3.30
2017-11-29T06:49:36.506Z,3.30
2017-11-29T06:52:04.718Z,3.40
2017-11-29T06:54:32.976Z,3.40
2017-11-29T06:57:04.911Z,3.30
2017-11-29T06:59:32.750Z,3.40
2017-11-29T07:02:00.350Z,3.40
2017-11-29T07:04:27.804Z,3.40
2017-11-29T07:06:56.797Z,3.50
2017-11-29T07:09:24.293Z,3.50
2017-11-29T07:11:51.734Z,3.50
2017-11-29T07:14:19.215Z,3.40
2017-11-29T07:16:46.677Z,3.40
2017-11-29T07:19:14.942Z,3.40
2017-11-29T07:21:42.457Z,3.40
2017-11-29T07:24:11.085Z,3.50
2017-11-29T07:26:41.673Z,3.50
2017-11-29T07:29:13.439Z,3.60
2017-11-29T07:31:40.894Z,3.70
2017-11-29T07:34:08.595Z,3.80
2017-11-29T07:36:36.138Z,3.80
2017-11-29T07:39:03.614Z,3.80
2017-11-29T07:41:31.062Z,3.80
2017-11-29T07:43:59.990Z,3.90
2017-11-29T07:46:27.686Z,3.90
2017-11-29T07:48:55.178Z,4.00
2017-11-29T07:51:23.319Z,4.00
2017-11-29T07:53:50.975Z,4.00
2017-11-29T07:56:21.571Z,4.00
2017-11-29T07:58:49.406Z,4.00
2017-11-29T08:01:16.909Z,4.00
2017-11-29T08:03:44.492Z,4.00
2017-11-29T08:06:12.131Z,3.90
2017-11-29T08:08:39.591Z,4.00
2017-11-29T08:11:07.168Z,4.00
2017-11-29T08:13:35.397Z,4.10
2017-11-29T08:16:02.860Z,4.10
2017-11-29T08:18:33.210Z,4.20
2017-11-29T08:21:00.666Z,4.10
2017-11-29T08:23:28.118Z,4.20
2017-11-29T08:25:55.602Z,4.30
2017-11-29T08:28:23.110Z,4.30
2017-11-29T08:30:51.331Z,4.40
2017-11-29T08:33:18.794Z,4.40
2017-11-29T08:35:47.087Z,4.50
2017-11-29T08:38:14.833Z,4.50
2017-11-29T08:40:42.324Z,4.60
2017-11-29T08:43:10.738Z,4.70
2017-11-29T08:45:38.223Z,4.70
2017-11-29T08:48:05.677Z,4.80
2017-11-29T08:50:33.166Z,4.80
2017-11-29T08:53:01.414Z,4.90
2017-11-29T08:55:28.886Z,4.80
2017-11-29T08:57:56.353Z,4.90
2017-11-29T09:00:25.748Z,5.00
2017-11-29T09:02:54.935Z,5.10
2017-11-29T09:05:22.886Z,5.10
2017-11-29T09:07:50.370Z,5.20
2017-11-29T09:10:17.829Z,5.30
2017-11-29T09:12:45.323Z,5.40
2017-11-29T09:15:12.790Z,5.50
2017-11-29T09:17:40.274Z,5.60
2017-11-29T09:20:08.638Z,5.60
2017-11-29T09:22:36.118Z,5.70
2017-11-29T09:25:03.574Z,5.80
2017-11-29T09:27:35.094Z,5.90
2017-11-29T09:30:02.571Z,6.00
2017-11-29T09:32:30.548Z,6.00
2017-11-29T09:34:58.013Z,6.00
2017-11-29T09:37:25.809Z,6.10
2017-11-29T09:39:53.270Z,6.10
2017-11-29T09:42:20.746Z,6.10
2017-11-29T09:44:48.238Z,6.00
2017-11-29T09:47:15.713Z,5.90
2017-11-29T09:49:43.233Z,5.70
2017-11-29T09:52:11.490Z,5.60
2017-11-29T09:54:38.922Z,5.60
2017-11-29T09:57:06.410Z,5.70
2017-11-29T09:59:37.194Z,5.70
2017-11-29T10:02:04.651Z,5.70
2017-11-29T10:04:32.514Z,5.80
2017-11-29T10:07:00.882Z,5.90
2017-11-29T10:09:29.274Z,5.90
2017-11-29T10:11:56.767Z,5.90
2017-11-29T10:14:25.933Z,6.00
2017-11-29T10:16:53.375Z,6.00
2017-11-29T10:19:20.979Z,5.90
2017-11-29T10:21:50.149Z,5.70
2017-11-29T10:24:17.613Z,5.70
2017-11-29T10:26:45.899Z,5.60
2017-11-29T10:29:13.953Z,5.60
2017-11-29T10:31:41.422Z,5.60
2017-11-29T10:34:09.279Z,5.50
2017-11-29T10:36:36.747Z,5.50
2017-11-29T10:39:04.231Z,5.50
2017-11-29T10:41:31.750Z,5.50
2017-11-29T10:44:00.567Z,5.60
2017-11-29T10:46:29.314Z,5.90
2017-11-29T10:48:56.927Z,5.90
2017-11-29T10:51:24.379Z,6.20
2017-11-29T10:53:52.774Z,6.30
2017-11-29T10:56:20.230Z,6.40
2017-11-29T10:58:47.782Z,6.40
2017-11-29T11:01:15.827Z,6.50
2017-11-29T11:03:43.315Z,6.50
2017-11-29T11:06:10.818Z,6.70
2017-11-29T11:08:38.275Z,6.90
2017-11-29T11:11:06.224Z,7.10
2017-11-29T11:13:33.714Z,7.30
2017-11-29T11:16:01.282Z,7.40
2017-11-29T11:18:28.784Z,7.50
2017-11-29T11:20:56.288Z,7.80
2017-11-29T11:23:24.494Z,7.90
2017-11-29T11:25:51.971Z,8.00
2017-11-29T11:28:20.893Z,8.00
2017-11-29T11:30:48.366Z,8.00
2017-11-29T11:33:15.871Z,7.90
2017-11-29T11:35:43.319Z,7.60
2017-11-29T11:38:10.789Z,7.50
2017-11-29T11:40:39.109Z,7.30
2017-11-29T11:43:06.578Z,7.10
2017-11-29T11:45:36.028Z,7.10
2017-11-29T11:48:04.329Z,7.10
2017-11-29T11:50:32.340Z,7.30
2017-11-29T11:53:00.172Z,7.40
2017-11-29T11:55:28.455Z,7.70
2017-11-29T11:57:56.295Z,7.80
2017-11-29T12:00:23.990Z,8.00
2017-11-29T12:02:51.472Z,8.10
2017-11-29T12:05:19.270Z,8.30
2017-11-29T12:07:46.746Z,8.40
2017-11-29T12:10:14.298Z,8.60
2017-11-29T12:12:42.528Z,8.70
2017-11-29T12:15:13.158Z,8.70
2017-11-29T12:17:40.678Z,8.60
2017-11-29T12:20:09.177Z,8.30
2017-11-29T12:22:37.515Z,8.30
2017-11-29T12:25:06.004Z,8.10
2017-11-29T12:27:33.467Z,8.00
2017-11-29T12:30:01.838Z,7.90
2017-11-29T12:32:29.911Z,7.80
2017-11-29T12:35:01.099Z,7.80
2017-11-29T12:37:28.572Z,7.70
2017-11-29T12:39:56.932Z,7.60
2017-11-29T12:42:24.680Z,7.60
2017-11-29T12:44:52.670Z,7.50
2017-11-29T12:47:31.566Z,7.40
2017-11-29T12:50:10.656Z,7.30
2017-11-29T12:52:38.211Z,7.10
2017-11-29T12:55:05.785Z,7.00
2017-11-29T12:57:33.253Z,6.90
2017-11-29T13:00:00.718Z,6.80
2017-11-29T13:02:33.532Z,6.70
2017-11-29T13:05:00.991Z,6.70
2017-11-29T13:07:28.538Z,6.60
2017-11-29T13:09:56.935Z,6.70
2017-11-29T13:12:25.168Z,6.70
2017-11-29T13:14:52.630Z,6.70
2017-11-29T13:17:20.150Z,6.80
2017-11-29T13:19:52.855Z,6.80
2017-11-29T13:22:20.313Z,6.80
2017-11-29T13:24:48.237Z,6.80
2017-11-29T13:27:16.233Z,6.70
2017-11-29T13:29:43.708Z,6.70
2017-11-29T13:32:14.380Z,6.60
2017-11-29T13:34:42.061Z,6.50
2017-11-29T13:37:11.127Z,6.40
2017-11-29T13:39:38.692Z,6.40
2017-11-29T13:42:06.970Z,6.30
2017-11-29T13:44:34.450Z,6.30
2017-11-29T13:47:01.925Z,6.20
2017-11-29T13:49:29.414Z,6.20
2017-11-29T13:51:56.901Z,6.20
2017-11-29T13:54:24.362Z,6.10
2017-11-29T13:56:52.407Z,6.00
2017-11-29T13:59:19.883Z,5.90
2017-11-29T14:01:48.125Z,5.70
2017-11-29T14:04:15.568Z,5.70
2017-11-29T14:06:43.175Z,5.70
2017-11-29T14:09:11.435Z,5.60
2017-11-29T14:11:38.973Z,5.50
2017-11-29T14:14:06.581Z,5.50
2017-11-29T14:16:34.131Z,5.40
2017-11-29T14:19:01.599Z,5.30
2017-11-29T14:21:29.117Z,5.20
2017-11-29T14:23:56.593Z,5.20
2017-11-29T14:26:24.096Z,5.20
2017-11-29T14:28:51.585Z,5.20
2017-11-29T14:31:19.813Z,5.20
2017-11-29T14:33:50.702Z,5.20
2017-11-29T14:36:18.166Z,5.20
2017-11-29T14:38:45.909Z,5.20
2017-11-29T14:41:13.378Z,5.30
2017-11-29T14:43:40.928Z,5.20
2017-11-29T14:46:10.078Z,5.30
2017-11-29T14:48:38.042Z,5.20
2017-11-29T14:51:05.497Z,5.30
2017-11-29T14:53:34.539Z,5.30
2017-11-29T14:56:02.000Z,5.30
2017-11-29T14:58:29.469Z,5.30
2017-11-29T15:00:56.959Z,5.40
2017-11-29T15:03:24.723Z,5.30
2017-11-29T15:05:53.103Z,5.40
2017-11-29T15:08:20.561Z,5.40
2017-11-29T15:10:48.450Z,5.40
2017-11-29T15:13:16.067Z,5.30
2017-11-29T15:15:43.544Z,5.20
2017-11-29T15:18:11.829Z,5.20
2017-11-29T15:20:44.388Z,5.10
2017-11-29T15:23:12.826Z,5.10
2017-11-29T15:25:40.269Z,5.10
2017-11-29T15:28:07.730Z,5.10
2017-11-29T15:30:35.253Z,5.10
2017-11-29T15:33:02.741Z,5.10
2017-11-29T15:35:34.149Z,5.10
2017-11-29T15:38:02.263Z,5.00
2017-11-29T15:40:29.721Z,4.90
2017-11-29T15:42:57.332Z,4.80
2017-11-29T15:45:24.785Z,4.80
2017-11-29T15:47:52.278Z,4.80
2017-11-29T15:50:19.752Z,4.80
2017-11-29T15:52:47.213Z,4.80
2017-11-29T15:55:16.382Z,4.80
2017-11-29T15:57:43.813Z,4.80
2017-11-29T16:00:13.557Z,4.60
2017-11-29T16:02:41.044Z,4.60
2017-11-29T16:05:12.644Z,4.70
2017-11-29T16:07:41.550Z,4.70
2017-11-29T16:10:09.393Z,4.60
2017-11-29T16:12:36.874Z,4.50
2017-11-29T16:15:04.331Z,4.50
2017-11-29T16:17:32.621Z,4.40
2017-11-29T16:20:00.074Z,4.40
2017-11-29T16:22:27.529Z,4.40
2017-11-29T16:24:55.002Z,4.30
2017-11-29T16:27:23.075Z,4.30
2017-11-29T16:29:50.517Z,4.20
2017-11-29T16:32:17.999Z,4.20
2017-11-29T16:34:50.409Z,4.20
2017-11-29T16:37:17.874Z,4.30
2017-11-29T16:39:45.366Z,4.20
2017-11-29T16:42:12.838Z,4.20
2017-11-29T16:44:40.662Z,4.10
2017-11-29T16:47:08.842Z,4.00
2017-11-29T16:49:36.346Z,4.00
2017-11-29T16:52:03.935Z,4.00
2017-11-29T16:54:31.459Z,4.00
2017-11-29T16:56:59.020Z,4.10
2017-11-29T16:59:26.508Z,4.20
2017-11-29T17:01:53.993Z,4.20
2017-11-29T17:04:22.411Z,4.20
2017-11-29T17:06:49.906Z,4.30
2017-11-29T17:09:17.568Z,4.30
2017-11-29T17:11:45.089Z,4.30
2017-11-29T17:14:12.524Z,4.30
2017-11-29T17:16:40.207Z,4.30
2017-11-29T17:19:07.639Z,4.30
2017-11-29T17:21:35.073Z,4.20
2017-11-29T17:24:02.656Z,4.30
2017-11-29T17:26:30.903Z,4.20
2017-11-29T17:28:58.373Z,4.20
2017-11-29T17:31:25.857Z,4.20
2017-11-29T17:33:53.911Z,4.10
2017-11-29T17:36:21.439Z,4.10
2017-11-29T17:38:49.510Z,4.00
2017-11-29T17:41:16.972Z,4.10
2017-11-29T17:43:44.499Z,4.10
2017-11-29T17:46:11.955Z,4.00
2017-11-29T17:48:39.675Z,4.00
2017-11-29T17:51:07.134Z,3.90
2017-11-29T17:53:34.649Z,3.90
2017-11-29T17:56:02.102Z,3.90
2017-11-29T17:58:29.690Z,4.00
2017-11-29T18:00:58.888Z,3.90
2017-11-29T18:03:26.330Z,3.90
2017-11-29T18:05:53.802Z,3.90
2017-11-29T18:08:26.698Z,3.80
2017-11-29T18:10:54.293Z,3.80
2017-11-29T18:13:23.449Z,4.00
2017-11-29T18:15:51.674Z,4.00
2017-11-29T18:18:19.170Z,4.00
2017-11-29T18:20:47.262Z,4.00
2017-11-29T18:23:15.468Z,4.10
2017-11-29T18:25:43.215Z,4.10
2017-11-29T18:28:10.972Z,4.00
2017-11-29T18:30:38.488Z,3.90
2017-11-29T18:33:06.886Z,3.90
2017-11-29T18:35:34.358Z,3.90
2017-11-29T18:38:05.854Z,3.90
2017-11-29T18:40:33.346Z,3.90
2017-11-29T18:43:01.728Z,4.00
2017-11-29T18:45:29.203Z,3.90
2017-11-29T18:47:56.756Z,3.80
2017-11-29T18:50:24.205Z,3.70
2017-11-29T18:52:52.480Z,3.70
2017-11-29T18:55:25.271Z,3.70
2017-11-29T18:57:52.880Z,3.70
2017-11-29T19:00:21.202Z,3.60
2017-11-29T19:02:49.483Z,3.60
2017-11-29T19:05:16.934Z,3.50
2017-11-29T19:07:46.863Z,3.60
2017-11-29T19:10:14.337Z,3.60
2017-11-29T19:12:41.869Z,3.60
2017-11-29T19:15:09.313Z,3.60
2017-11-29T19:17:36.770Z,3.60
2017-11-29T19:20:05.216Z,3.60
2017-11-29T19:22:32.654Z,3.40
2017-11-29T19:25:01.410Z,3.40
2017-11-29T19:27:29.060Z,3.40
2017-11-29T19:29:56.560Z,3.30
2017-11-29T19:32:24.500Z,3.30
2017-11-29T19:34:51.959Z,3.30
2017-11-29T19:37:20.190Z,3.30
2017-11-29T19:39:50.978Z,3.20
2017-11-29T19:42:20.117Z,3.20
2017-11-29T19:44:48.456Z,3.20
2017-11-29T19:47:16.218Z,3.10
2017-11-29T19:49:44.005Z,3.20
2017-11-29T19:52:11.734Z,3.20
2017-11-29T19:54:39.807Z,3.10
2017-11-29T19:57:07.288Z,3.10
2017-11-29T19:59:35.340Z,3.10
2017-11-29T20:02:03.718Z,3.20
2017-11-29T20:04:31.218Z,3.10
2017-11-29T20:06:58.733Z,3.20
2017-11-29T20:09:29.846Z,3.20
2017-11-29T20:11:57.300Z,3.10
2017-11-29T20:14:24.837Z,3.10
2017-11-29T20:16:53.129Z,3.10
2017-11-29T20:19:20.609Z,3.20
2017-11-29T20:21:48.086Z,3.20
2017-11-29T20:24:15.537Z,3.10
2017-11-29T20:26:42.982Z,3.20
2017-11-29T20:29:10.442Z,3.30
2017-11-29T20:31:37.916Z,3.30
2017-11-29T20:34:06.274Z,3.20
2017-11-29T20:36:34.023Z,3.00
2017-11-29T20:39:01.458Z,2.90
2017-11-29T20:41:28.949Z,3.00
2017-11-29T20:43:56.422Z,3.10
2017-11-29T20:46:24.815Z,3.10
2017-11-29T20:48:52.313Z,3.20
2017-11-29T20:51:20.213Z,3.10
2017-11-29T20:53:51.774Z,2.90
2017-11-29T20:56:19.247Z,2.90
2017-11-29T20:58:46.998Z,2.80
2017-11-29T21:01:16.004Z,2.80
2017-11-29T21:03:43.749Z,2.80
2017-11-29T21:06:11.993Z,2.90
2017-11-29T21:08:40.473Z,2.80
2017-11-29T21:11:11.627Z,2.80
2017-11-29T21:13:41.533Z,2.80
2017-11-29T21:16:09.022Z,2.80
2017-11-29T21:18:36.526Z,2.80
2017-11-29T21:21:06.548Z,2.80
2017-11-29T21:23:35.898Z,2.90
2017-11-29T21:26:03.350Z,2.90
2017-11-29T21:28:30.807Z,2.90
2017-11-29T21:30:59.225Z,2.90
2017-11-29T21:33:26.712Z,2.80
2017-11-29T21:35:54.161Z,2.80
2017-11-29T21:38:22.125Z,2.80
2017-11-29T21:40:54.023Z,2.70
2017-11-29T21:43:21.506Z,2.80
2017-11-29T21:45:48.962Z,2.80
2017-11-29T21:48:16.466Z,2.60
2017-11-29T21:50:43.908Z,2.50
2017-11-29T21:53:11.398Z,2.40
2017-11-29T21:55:42.768Z,2.20
2017-11-29T21:58:10.448Z,2.20
2017-11-29T22:00:38.247Z,2.10
2017-11-29T22:03:05.740Z,2.10
2017-11-29T22:05:33.209Z,2.10
2017-11-29T22:08:00.680Z,2.10
2017-11-29T22:10:32.772Z,2.10
2017-11-29T22:13:00.242Z,2.10
2017-11-29T22:15:27.733Z,2.00
2017-11-29T22:17:55.202Z,2.00
2017-11-29T22:20:22.665Z,1.90
2017-11-29T22:22:50.887Z,1.80
2017-11-29T22:25:18.354Z,1.70
2017-11-29T22:27:50.178Z,1.60
2017-11-29T22:30:17.634Z,1.60
2017-11-29T22:32:45.114Z,1.50
2017-11-29T22:35:12.611Z,1.50
2017-11-29T22:37:40.089Z,1.40
2017-11-29T22:40:07.541Z,1.40
2017-11-29T22:42:35.101Z,1.40
2017-11-29T22:45:02.565Z,1.40
2017-11-29T22:47:30.841Z,1.50
2017-11-29T22:49:59.422Z,1.50
2017-11-29T22:52:26.861Z,1.50
2017-11-29T22:54:55.233Z,1.50
2017-11-29T22:57:22.721Z,1.50
2017-11-29T22:59:50.164Z,1.30
2017-11-29T23:02:17.670Z,1.30
2017-11-29T23:04:45.162Z,1.30
2017-11-29T23:07:13.126Z,1.30
2017-11-29T23:09:41.345Z,1.30
2017-11-29T23:12:09.333Z,1.30
2017-11-29T23:14:36.799Z,1.30
2017-11-29T23:17:04.303Z,1.20
2017-11-29T23:19:31.746Z,1.20
2017-11-29T23:21:59.216Z,1.20
2017-11-29T23:24:26.686Z,1.20
2017-11-29T23:26:54.955Z,1.20
2017-11-29T23:29:22.826Z,1.20
2017-11-29T23:31:51.078Z,1.10
2017-11-29T23:34:18.599Z,1.10
2017-11-29T23:36:46.529Z,1.10
2017-11-29T23:39:14.100Z,1.10
2017-11-29T23:41:47.066Z,1.00
2017-11-29T23:44:14.523Z,1.10
2017-11-29T23:46:42.600Z,1.00
2017-11-29T23:49:10.119Z,1.00
2017-11-29T23:51:37.583Z,1.00
2017-11-29T23:54:05.049Z,1.00
2017-11-29T23:56:32.527Z,1.00
2017-11-29T23:58:59.996Z,1.00
